Αρχική σελίδα
METAR-TAF:

METAR-TAF

Αεροδρόμια :

Φουντσάλ, Μαδέρα, Πορτογαλία

γεωγραφικό πλάτος: 32-41-52N, γεωγραφικό μήκος: 016-46-28W, υψόμετρο: 59 μ

Παρών καιρός

Η αναφορά έγινε 18 λεπτά πριν, στις 23:30 UTC
Άνεμος 10 kt από Β/BA, μεταβλητός μεταξύ Β και BA
Θερμοκρασία 15°C
Υγρασία 67%
Πίεση 1028 hPa
Ορατότητα 10 χλμ και άνω
Διάσπαρτα νέφη σε ύψος 1500 πόδια
Αρκετά νέφη σε ύψος 3000 πόδια

METAR: LPMA 212330Z 02010KT 350V050 9999 SCT015 BKN030 15/09 Q1028

Χρόνος: 23:48 (23:48 UTC)

Πρόγνωση Καιρού

Η αναφορά έγινε 48 λεπτά πριν, στις 23:00 UTC
Η πρόγνωση ισχύει από τις 22 στις 00 UTC έως τις 22 στις 24 UTC
Άνεμος 10 kt από Β
Ορατότητα 10 χλμ και άνω
Διάσπαρτα νέφη σε ύψος 1500 πόδια
Αρκετά νέφη σε ύψος 3000 πόδια

TAF: LPMA 212300Z 2200/2224 01010KT 9999 SCT015 BKN030

Μετεωρολογικές αναφορές και προγνώσεις για περισσότερα από 4000 αεροδρόμια (δελτία METAR και TAF).

Οι διαθέσιμοι σταθμοί απεικονίζονται στο χάρτη με κίτρινες και κόκκινες κουκκίδες.

Μετακινήστε το ποντίκι πάνω από τις κουκκίδες για να δείτε το όνομα του σταθμού.

Στη συνέχεια, κάντε κλικ για να δείτε τις μετεωρολογικές αναφορές και τις προγνώσεις καιρού.

Για να αλλάξετε το χάρτη: κάντε κλικ στα πράσινα κουμπιά με τον μαύρο σταυρό για να ζουμάρετε, στο πράσινο κουμπί με την παύλα για να αφαιρέσετε το ζουμ ή στα πράσινα βέλη για να αντιπαραβάλλετε χάρτες.


METAR-TAF: